To NAV CANADA Home Page Login to a new session Search on AWWS site Disclaimer Vers la page française équivalente Tips FAQ What's new on the site To the Forecasts and Observations / NOTAM section To "File a Flight Plan" website Publications and other links Update of the User's profile FIC Telephone Numbers My Weather Data Folder Route Weather Data Regional Weather Data Local Weather Data To the Forecasts and Observations / NOTAM section
Request Generated 10/19/2018 at 15:28:21 UTC . Weather information available at that time is displayed.

METAR/TAF

KEY LAKE/SK    (show WxCam)

METAR CYKJ 191500Z AUTO 33010G21KT 9SM OVC021 M04/M08 A3007 RMK SLP215=
METAR CYKJ 191400Z AUTO 33016G24KT 9SM OVC027 M04/M08 A3005 RMK SLP206=
METAR CYKJ 191300Z AUTO 33014G23KT 9SM BKN025 M04/M08 A3002 RMK SLP197=

TAF CYKJ 191238Z 1913/1924 33012G22KT P6SM SCT015 OVC025 TEMPO
1913/1918 3SM -SHSN BKN015
FM191900 33015G25KT P6SM BKN030
BECMG 1922/1924 33010G20KT
RMK FCST BASED ON AUTO OBS. NXT FCST BY 191900Z=
Your time UTC time
Weather data provided by Environment Canada and NAV CANADA